sensor_id;sensor_type;location;lat;lon;timestamp;P1;durP1;ratioP1;P2;durP2;ratioP2
63492;SDS011;49638;47.526;10.028;2023-06-01T00:02:52;9.85;;;5.93;;
63492;SDS011;49638;47.526;10.028;2023-06-01T00:05:53;9.68;;;6.03;;
63492;SDS011;49638;47.526;10.028;2023-06-01T00:08:53;10.85;;;6.55;;
63492;SDS011;49638;47.526;10.028;2023-06-01T00:11:54;9.50;;;6.07;;
63492;SDS011;49638;47.526;10.028;2023-06-01T00:14:54;11.27;;;6.15;;
63492;SDS011;49638;47.526;10.028;2023-06-01T00:17:55;13.73;;;6.50;;
63492;SDS011;49638;47.526;10.028;2023-06-01T00:20:56;11.15;;;6.18;;
63492;SDS011;49638;47.526;10.028;2023-06-01T00:23:56;10.02;;;6.38;;
63492;SDS011;49638;47.526;10.028;2023-06-01T00:26:56;12.68;;;6.13;;
63492;SDS011;49638;47.526;10.028;2023-06-01T00:29:56;11.52;;;6.43;;
63492;SDS011;49638;47.526;10.028;2023-06-01T00:32:57;12.23;;;6.88;;
63492;SDS011;49638;47.526;10.028;2023-06-01T00:35:57;9.02;;;6.07;;
63492;SDS011;49638;47.526;10.028;2023-06-01T00:38:57;10.50;;;6.35;;
63492;SDS011;49638;47.526;10.028;2023-06-01T00:42:02;8.63;;;6.05;;
63492;SDS011;49638;47.526;10.028;2023-06-01T00:45:02;10.00;;;6.35;;
63492;SDS011;49638;47.526;10.028;2023-06-01T00:48:03;9.82;;;6.20;;
63492;SDS011;49638;47.526;10.028;2023-06-01T00:51:04;10.73;;;6.63;;
63492;SDS011;49638;47.526;10.028;2023-06-01T00:54:04;10.45;;;6.07;;
63492;SDS011;49638;47.526;10.028;2023-06-01T00:57:05;9.35;;;5.85;;
63492;SDS011;49638;47.526;10.028;2023-06-01T01:00:06;7.65;;;5.90;;
63492;SDS011;49638;47.526;10.028;2023-06-01T01:03:10;9.05;;;5.90;;
63492;SDS011;49638;47.526;10.028;2023-06-01T01:06:21;9.90;;;6.22;;
63492;SDS011;49638;47.526;10.028;2023-06-01T01:09:53;9.27;;;5.53;;
63492;SDS011;49638;47.526;10.028;2023-06-01T01:25:55;9.27;;;6.20;;
63492;SDS011;49638;47.526;10.028;2023-06-01T01:29:12;11.63;;;6.47;;
63492;SDS011;49638;47.526;10.028;2023-06-01T01:32:15;10.63;;;6.63;;
63492;SDS011;49638;47.526;10.028;2023-06-01T01:35:17;9.80;;;6.35;;
63492;SDS011;49638;47.526;10.028;2023-06-01T01:38:17;8.82;;;6.47;;
63492;SDS011;49638;47.526;10.028;2023-06-01T01:41:18;9.63;;;5.95;;
63492;SDS011;49638;47.526;10.028;2023-06-01T01:44:19;8.70;;;6.00;;
63492;SDS011;49638;47.526;10.028;2023-06-01T01:47:31;10.52;;;6.03;;
63492;SDS011;49638;47.526;10.028;2023-06-01T01:50:37;10.27;;;6.20;;
63492;SDS011;49638;47.526;10.028;2023-06-01T01:53:46;9.65;;;5.90;;
63492;SDS011;49638;47.526;10.028;2023-06-01T01:56:50;9.60;;;6.05;;
63492;SDS011;49638;47.526;10.028;2023-06-01T01:59:55;10.40;;;6.68;;
63492;SDS011;49638;47.526;10.028;2023-06-01T02:02:56;12.48;;;6.55;;
63492;SDS011;49638;47.526;10.028;2023-06-01T02:05:57;10.90;;;6.25;;
63492;SDS011;49638;47.526;10.028;2023-06-01T02:08:57;13.23;;;6.40;;
63492;SDS011;49638;47.526;10.028;2023-06-01T02:11:58;9.10;;;6.28;;
63492;SDS011;49638;47.526;10.028;2023-06-01T02:14:58;9.88;;;6.43;;
63492;SDS011;49638;47.526;10.028;2023-06-01T02:17:58;12.20;;;7.05;;
63492;SDS011;49638;47.526;10.028;2023-06-01T02:20:59;8.90;;;6.10;;
63492;SDS011;49638;47.526;10.028;2023-06-01T02:23:59;9.27;;;6.43;;
63492;SDS011;49638;47.526;10.028;2023-06-01T02:27:04;9.02;;;6.10;;
63492;SDS011;49638;47.526;10.028;2023-06-01T02:30:05;7.90;;;5.70;;
63492;SDS011;49638;47.526;10.028;2023-06-01T02:33:06;10.23;;;5.60;;
63492;SDS011;49638;47.526;10.028;2023-06-01T02:36:06;10.13;;;6.43;;
63492;SDS011;49638;47.526;10.028;2023-06-01T02:39:07;10.05;;;6.20;;
63492;SDS011;49638;47.526;10.028;2023-06-01T02:42:07;9.50;;;6.55;;
63492;SDS011;49638;47.526;10.028;2023-06-01T02:45:08;8.60;;;6.55;;
63492;SDS011;49638;47.526;10.028;2023-06-01T02:48:09;11.73;;;6.50;;
63492;SDS011;49638;47.526;10.028;2023-06-01T02:51:09;9.00;;;6.72;;
63492;SDS011;49638;47.526;10.028;2023-06-01T02:54:10;9.70;;;6.22;;
63492;SDS011;49638;47.526;10.028;2023-06-01T02:57:10;12.15;;;6.25;;
63492;SDS011;49638;47.526;10.028;2023-06-01T03:00:10;9.75;;;6.43;;
63492;SDS011;49638;47.526;10.028;2023-06-01T03:03:15;8.27;;;5.88;;
63492;SDS011;49638;47.526;10.028;2023-06-01T03:06:17;10.63;;;6.72;;
63492;SDS011;49638;47.526;10.028;2023-06-01T03:09:21;12.82;;;6.18;;
63492;SDS011;49638;47.526;10.028;2023-06-01T03:12:21;9.80;;;6.05;;
63492;SDS011;49638;47.526;10.028;2023-06-01T03:15:21;12.88;;;6.43;;
63492;SDS011;49638;47.526;10.028;2023-06-01T03:18:22;10.68;;;6.72;;
63492;SDS011;49638;47.526;10.028;2023-06-01T03:21:22;10.13;;;6.45;;
63492;SDS011;49638;47.526;10.028;2023-06-01T03:24:23;9.05;;;6.03;;
63492;SDS011;49638;47.526;10.028;2023-06-01T03:27:26;8.02;;;6.05;;
63492;SDS011;49638;47.526;10.028;2023-06-01T03:30:26;10.00;;;6.72;;
63492;SDS011;49638;47.526;10.028;2023-06-01T03:33:26;9.82;;;6.72;;
63492;SDS011;49638;47.526;10.028;2023-06-01T03:36:27;10.98;;;6.32;;
63492;SDS011;49638;47.526;10.028;2023-06-01T03:39:27;9.13;;;6.32;;
63492;SDS011;49638;47.526;10.028;2023-06-01T03:42:28;10.77;;;6.55;;
63492;SDS011;49638;47.526;10.028;2023-06-01T03:45:28;11.60;;;6.43;;
63492;SDS011;49638;47.526;10.028;2023-06-01T03:48:28;10.75;;;6.22;;
63492;SDS011;49638;47.526;10.028;2023-06-01T03:51:28;9.10;;;6.35;;
63492;SDS011;49638;47.526;10.028;2023-06-01T03:54:29;10.43;;;6.57;;
63492;SDS011;49638;47.526;10.028;2023-06-01T03:57:29;10.35;;;6.40;;
63492;SDS011;49638;47.526;10.028;2023-06-01T04:00:29;11.60;;;6.85;;
63492;SDS011;49638;47.526;10.028;2023-06-01T04:03:30;8.60;;;6.50;;
63492;SDS011;49638;47.526;10.028;2023-06-01T04:06:30;9.27;;;6.88;;
63492;SDS011;49638;47.526;10.028;2023-06-01T04:09:35;12.70;;;7.35;;
63492;SDS011;49638;47.526;10.028;2023-06-01T04:12:37;9.90;;;6.68;;
63492;SDS011;49638;47.526;10.028;2023-06-01T04:15:37;9.30;;;7.00;;
63492;SDS011;49638;47.526;10.028;2023-06-01T04:18:37;12.13;;;6.82;;
63492;SDS011;49638;47.526;10.028;2023-06-01T04:21:38;10.63;;;7.03;;
63492;SDS011;49638;47.526;10.028;2023-06-01T04:24:38;9.45;;;6.53;;
63492;SDS011;49638;47.526;10.028;2023-06-01T04:27:42;13.00;;;6.82;;
63492;SDS011;49638;47.526;10.028;2023-06-01T04:30:47;10.13;;;6.45;;
63492;SDS011;49638;47.526;10.028;2023-06-01T04:33:47;11.82;;;6.43;;
63492;SDS011;49638;47.526;10.028;2023-06-01T04:36:56;9.57;;;6.07;;
63492;SDS011;49638;47.526;10.028;2023-06-01T04:39:56;12.82;;;6.63;;
63492;SDS011;49638;47.526;10.028;2023-06-01T04:42:56;8.52;;;6.15;;
63492;SDS011;49638;47.526;10.028;2023-06-01T04:45:57;8.73;;;6.00;;
63492;SDS011;49638;47.526;10.028;2023-06-01T04:49:03;8.73;;;5.97;;
63492;SDS011;49638;47.526;10.028;2023-06-01T04:52:04;9.40;;;5.75;;
63492;SDS011;49638;47.526;10.028;2023-06-01T04:55:06;9.10;;;6.18;;
63492;SDS011;49638;47.526;10.028;2023-06-01T04:58:07;8.95;;;5.80;;
63492;SDS011;49638;47.526;10.028;2023-06-01T05:01:07;9.27;;;5.40;;
63492;SDS011;49638;47.526;10.028;2023-06-01T05:04:07;9.82;;;5.45;;
63492;SDS011;49638;47.526;10.028;2023-06-01T05:07:08;9.05;;;5.40;;
63492;SDS011;49638;47.526;10.028;2023-06-01T05:10:09;9.18;;;5.20;;
63492;SDS011;49638;47.526;10.028;2023-06-01T05:13:10;7.70;;;5.30;;
63492;SDS011;49638;47.526;10.028;2023-06-01T05:16:11;7.80;;;5.20;;
63492;SDS011;49638;47.526;10.028;2023-06-01T05:19:11;8.43;;;5.40;;
63492;SDS011;49638;47.526;10.028;2023-06-01T05:22:12;8.23;;;5.25;;
63492;SDS011;49638;47.526;10.028;2023-06-01T05:25:13;8.05;;;5.53;;
63492;SDS011;49638;47.526;10.028;2023-06-01T05:28:14;9.93;;;5.43;;
63492;SDS011;49638;47.526;10.028;2023-06-01T05:31:14;8.43;;;5.30;;
63492;SDS011;49638;47.526;10.028;2023-06-01T05:34:15;8.88;;;5.45;;
63492;SDS011;49638;47.526;10.028;2023-06-01T05:37:15;6.20;;;4.90;;
63492;SDS011;49638;47.526;10.028;2023-06-01T05:40:16;7.13;;;5.20;;
63492;SDS011;49638;47.526;10.028;2023-06-01T05:43:16;6.18;;;4.82;;
63492;SDS011;49638;47.526;10.028;2023-06-01T05:46:16;8.25;;;5.38;;
63492;SDS011;49638;47.526;10.028;2023-06-01T05:49:17;8.02;;;5.57;;
63492;SDS011;49638;47.526;10.028;2023-06-01T05:52:17;6.47;;;5.13;;
63492;SDS011;49638;47.526;10.028;2023-06-01T05:55:17;7.05;;;5.00;;
63492;SDS011;49638;47.526;10.028;2023-06-01T05:58:17;10.10;;;5.15;;
63492;SDS011;49638;47.526;10.028;2023-06-01T06:01:18;8.27;;;5.28;;
63492;SDS011;49638;47.526;10.028;2023-06-01T06:04:19;8.20;;;5.85;;
63492;SDS011;49638;47.526;10.028;2023-06-01T06:07:20;7.40;;;5.10;;
63492;SDS011;49638;47.526;10.028;2023-06-01T06:10:20;8.35;;;5.45;;
63492;SDS011;49638;47.526;10.028;2023-06-01T06:13:20;7.47;;;4.97;;
63492;SDS011;49638;47.526;10.028;2023-06-01T06:16:20;9.07;;;5.18;;
63492;SDS011;49638;47.526;10.028;2023-06-01T06:19:21;8.45;;;5.30;;
63492;SDS011;49638;47.526;10.028;2023-06-01T06:22:21;8.02;;;5.68;;
63492;SDS011;49638;47.526;10.028;2023-06-01T06:25:21;7.90;;;5.88;;
63492;SDS011;49638;47.526;10.028;2023-06-01T06:28:22;10.10;;;5.70;;
63492;SDS011;49638;47.526;10.028;2023-06-01T06:31:23;7.07;;;5.35;;
63492;SDS011;49638;47.526;10.028;2023-06-01T06:34:23;7.72;;;5.90;;
63492;SDS011;49638;47.526;10.028;2023-06-01T06:37:24;8.13;;;5.38;;
63492;SDS011;49638;47.526;10.028;2023-06-01T06:40:24;8.90;;;5.40;;
63492;SDS011;49638;47.526;10.028;2023-06-01T06:43:25;7.22;;;5.72;;
63492;SDS011;49638;47.526;10.028;2023-06-01T06:46:25;9.13;;;5.72;;
63492;SDS011;49638;47.526;10.028;2023-06-01T06:49:26;7.53;;;5.53;;
63492;SDS011;49638;47.526;10.028;2023-06-01T06:52:26;8.80;;;5.55;;
63492;SDS011;49638;47.526;10.028;2023-06-01T06:55:26;8.13;;;5.32;;
63492;SDS011;49638;47.526;10.028;2023-06-01T06:58:26;6.77;;;5.30;;
63492;SDS011;49638;47.526;10.028;2023-06-01T07:01:27;9.23;;;5.40;;
63492;SDS011;49638;47.526;10.028;2023-06-01T07:04:27;9.90;;;5.70;;
63492;SDS011;49638;47.526;10.028;2023-06-01T07:07:28;9.77;;;5.50;;
63492;SDS011;49638;47.526;10.028;2023-06-01T07:10:28;7.22;;;5.15;;
63492;SDS011;49638;47.526;10.028;2023-06-01T07:13:29;8.15;;;5.65;;
63492;SDS011;49638;47.526;10.028;2023-06-01T07:16:30;7.18;;;5.40;;
63492;SDS011;49638;47.526;10.028;2023-06-01T07:19:30;9.30;;;5.40;;
63492;SDS011;49638;47.526;10.028;2023-06-01T07:22:33;8.70;;;5.95;;
63492;SDS011;49638;47.526;10.028;2023-06-01T07:25:33;7.40;;;5.20;;
63492;SDS011;49638;47.526;10.028;2023-06-01T07:28:33;8.88;;;5.55;;
63492;SDS011;49638;47.526;10.028;2023-06-01T07:31:34;8.00;;;5.05;;
63492;SDS011;49638;47.526;10.028;2023-06-01T07:34:35;9.80;;;5.22;;
63492;SDS011;49638;47.526;10.028;2023-06-01T07:37:35;8.27;;;5.32;;
63492;SDS011;49638;47.526;10.028;2023-06-01T07:40:36;9.63;;;5.70;;
63492;SDS011;49638;47.526;10.028;2023-06-01T07:43:36;8.32;;;6.07;;
63492;SDS011;49638;47.526;10.028;2023-06-01T07:46:38;7.22;;;5.30;;
63492;SDS011;49638;47.526;10.028;2023-06-01T07:49:38;7.77;;;5.60;;
63492;SDS011;49638;47.526;10.028;2023-06-01T07:52:38;7.43;;;5.53;;
63492;SDS011;49638;47.526;10.028;2023-06-01T07:55:38;9.15;;;5.60;;
63492;SDS011;49638;47.526;10.028;2023-06-01T07:58:39;8.18;;;5.70;;
63492;SDS011;49638;47.526;10.028;2023-06-01T08:01:39;7.72;;;5.40;;
63492;SDS011;49638;47.526;10.028;2023-06-01T08:04:39;8.10;;;5.80;;
63492;SDS011;49638;47.526;10.028;2023-06-01T08:07:40;8.50;;;5.93;;
63492;SDS011;49638;47.526;10.028;2023-06-01T08:10:42;21.17;;;7.15;;
63492;SDS011;49638;47.526;10.028;2023-06-01T08:13:43;7.83;;;5.53;;
63492;SDS011;49638;47.526;10.028;2023-06-01T08:16:45;8.48;;;5.78;;
63492;SDS011;49638;47.526;10.028;2023-06-01T08:19:45;8.82;;;5.72;;
63492;SDS011;49638;47.526;10.028;2023-06-01T08:22:47;9.00;;;5.57;;
63492;SDS011;49638;47.526;10.028;2023-06-01T08:25:49;10.73;;;5.93;;
63492;SDS011;49638;47.526;10.028;2023-06-01T08:28:49;8.95;;;5.90;;
63492;SDS011;49638;47.526;10.028;2023-06-01T08:31:52;8.40;;;5.70;;
63492;SDS011;49638;47.526;10.028;2023-06-01T08:34:53;9.40;;;6.00;;
63492;SDS011;49638;47.526;10.028;2023-06-01T08:37:53;8.57;;;6.00;;
63492;SDS011;49638;47.526;10.028;2023-06-01T08:40:53;9.53;;;5.93;;
63492;SDS011;49638;47.526;10.028;2023-06-01T08:43:59;6.75;;;5.43;;
63492;SDS011;49638;47.526;10.028;2023-06-01T08:47:02;10.00;;;5.78;;
63492;SDS011;49638;47.526;10.028;2023-06-01T08:50:03;9.05;;;5.45;;
63492;SDS011;49638;47.526;10.028;2023-06-01T08:53:04;9.57;;;5.75;;
63492;SDS011;49638;47.526;10.028;2023-06-01T08:56:05;9.10;;;6.10;;
63492;SDS011;49638;47.526;10.028;2023-06-01T08:59:06;7.13;;;6.00;;
63492;SDS011;49638;47.526;10.028;2023-06-01T09:02:06;9.90;;;5.90;;
63492;SDS011;49638;47.526;10.028;2023-06-01T09:05:07;9.63;;;6.05;;
63492;SDS011;49638;47.526;10.028;2023-06-01T09:08:07;9.45;;;6.00;;
63492;SDS011;49638;47.526;10.028;2023-06-01T09:11:09;8.77;;;5.90;;
63492;SDS011;49638;47.526;10.028;2023-06-01T09:14:19;7.15;;;5.35;;
63492;SDS011;49638;47.526;10.028;2023-06-01T09:17:23;9.50;;;6.32;;
63492;SDS011;49638;47.526;10.028;2023-06-01T09:20:27;8.68;;;6.40;;
63492;SDS011;49638;47.526;10.028;2023-06-01T09:23:28;8.85;;;6.28;;
63492;SDS011;49638;47.526;10.028;2023-06-01T09:26:30;8.13;;;5.90;;
63492;SDS011;49638;47.526;10.028;2023-06-01T09:29:30;7.80;;;5.65;;
63492;SDS011;49638;47.526;10.028;2023-06-01T09:32:30;12.25;;;6.25;;
63492;SDS011;49638;47.526;10.028;2023-06-01T09:35:41;10.57;;;6.68;;
63492;SDS011;49638;47.526;10.028;2023-06-01T09:38:42;8.30;;;5.72;;
63492;SDS011;49638;47.526;10.028;2023-06-01T09:41:56;7.32;;;5.75;;
63492;SDS011;49638;47.526;10.028;2023-06-01T09:48:37;9.00;;;6.03;;
63492;SDS011;49638;47.526;10.028;2023-06-01T09:51:37;6.93;;;5.85;;
63492;SDS011;49638;47.526;10.028;2023-06-01T09:54:40;9.40;;;6.70;;
63492;SDS011;49638;47.526;10.028;2023-06-01T09:57:42;10.57;;;6.13;;
63492;SDS011;49638;47.526;10.028;2023-06-01T10:00:43;18.83;;;7.20;;
63492;SDS011;49638;47.526;10.028;2023-06-01T10:03:46;9.15;;;6.35;;
63492;SDS011;49638;47.526;10.028;2023-06-01T10:06:48;10.02;;;5.68;;
63492;SDS011;49638;47.526;10.028;2023-06-01T10:09:53;8.48;;;5.95;;
63492;SDS011;49638;47.526;10.028;2023-06-01T10:15:55;11.33;;;6.17;;
63492;SDS011;49638;47.526;10.028;2023-06-01T10:18:55;11.33;;;6.07;;
63492;SDS011;49638;47.526;10.028;2023-06-01T10:21:57;7.43;;;5.63;;
63492;SDS011;49638;47.526;10.028;2023-06-01T10:24:58;8.45;;;6.22;;
63492;SDS011;49638;47.526;10.028;2023-06-01T10:28:01;7.55;;;5.97;;
63492;SDS011;49638;47.526;10.028;2023-06-01T10:34:42;11.88;;;6.60;;
63492;SDS011;49638;47.526;10.028;2023-06-01T10:37:53;7.80;;;5.93;;
63492;SDS011;49638;47.526;10.028;2023-06-01T10:41:25;8.07;;;6.25;;
63492;SDS011;49638;47.526;10.028;2023-06-01T10:50:43;9.07;;;6.57;;
63492;SDS011;49638;47.526;10.028;2023-06-01T10:54:24;10.45;;;6.65;;
63492;SDS011;49638;47.526;10.028;2023-06-01T10:57:29;8.30;;;6.22;;
63492;SDS011;49638;47.526;10.028;2023-06-01T11:00:31;9.38;;;6.38;;
63492;SDS011;49638;47.526;10.028;2023-06-01T11:03:42;8.95;;;6.18;;
63492;SDS011;49638;47.526;10.028;2023-06-01T11:06:46;9.63;;;6.82;;
63492;SDS011;49638;47.526;10.028;2023-06-01T11:09:47;10.30;;;7.00;;
63492;SDS011;49638;47.526;10.028;2023-06-01T11:19:23;9.15;;;6.18;;
63492;SDS011;49638;47.526;10.028;2023-06-01T11:22:24;8.48;;;6.05;;
63492;SDS011;49638;47.526;10.028;2023-06-01T11:25:25;9.85;;;7.05;;
63492;SDS011;49638;47.526;10.028;2023-06-01T11:28:26;8.50;;;6.70;;
63492;SDS011;49638;47.526;10.028;2023-06-01T11:31:27;8.75;;;7.03;;
63492;SDS011;49638;47.526;10.028;2023-06-01T11:34:37;8.80;;;7.13;;
63492;SDS011;49638;47.526;10.028;2023-06-01T11:37:39;10.13;;;7.30;;
63492;SDS011;49638;47.526;10.028;2023-06-01T11:40:57;7.80;;;6.63;;
63492;SDS011;49638;47.526;10.028;2023-06-01T11:43:58;9.40;;;7.25;;
63492;SDS011;49638;47.526;10.028;2023-06-01T11:46:58;11.45;;;7.72;;
63492;SDS011;49638;47.526;10.028;2023-06-01T11:49:59;11.07;;;7.38;;
63492;SDS011;49638;47.526;10.028;2023-06-01T11:52:59;10.48;;;6.68;;
63492;SDS011;49638;47.526;10.028;2023-06-01T11:56:00;10.73;;;7.07;;
63492;SDS011;49638;47.526;10.028;2023-06-01T11:59:03;11.23;;;7.00;;
63492;SDS011;49638;47.526;10.028;2023-06-01T12:02:21;9.07;;;7.30;;
63492;SDS011;49638;47.526;10.028;2023-06-01T12:05:24;10.88;;;7.53;;
63492;SDS011;49638;47.526;10.028;2023-06-01T12:08:24;10.40;;;7.35;;
63492;SDS011;49638;47.526;10.028;2023-06-01T12:11:25;10.50;;;7.57;;
63492;SDS011;49638;47.526;10.028;2023-06-01T12:14:27;9.32;;;7.30;;
63492;SDS011;49638;47.526;10.028;2023-06-01T12:17:44;10.23;;;7.43;;
63492;SDS011;49638;47.526;10.028;2023-06-01T12:20:49;8.75;;;7.43;;
63492;SDS011;49638;47.526;10.028;2023-06-01T12:23:49;10.73;;;7.45;;
63492;SDS011;49638;47.526;10.028;2023-06-01T12:26:53;11.82;;;7.28;;
63492;SDS011;49638;47.526;10.028;2023-06-01T12:29:53;9.93;;;7.13;;
63492;SDS011;49638;47.526;10.028;2023-06-01T12:32:55;9.25;;;7.07;;
63492;SDS011;49638;47.526;10.028;2023-06-01T12:35:55;13.55;;;7.57;;
63492;SDS011;49638;47.526;10.028;2023-06-01T12:38:56;9.80;;;7.07;;
63492;SDS011;49638;47.526;10.028;2023-06-01T12:41:57;10.85;;;7.72;;
63492;SDS011;49638;47.526;10.028;2023-06-01T12:44:57;10.50;;;7.57;;
63492;SDS011;49638;47.526;10.028;2023-06-01T12:47:58;11.00;;;7.78;;
63492;SDS011;49638;47.526;10.028;2023-06-01T12:50:59;13.18;;;7.88;;
63492;SDS011;49638;47.526;10.028;2023-06-01T12:53:59;10.57;;;7.95;;
63492;SDS011;49638;47.526;10.028;2023-06-01T12:56:59;11.63;;;8.13;;
63492;SDS011;49638;47.526;10.028;2023-06-01T13:00:00;13.23;;;8.20;;
63492;SDS011;49638;47.526;10.028;2023-06-01T13:03:00;11.05;;;8.38;;
63492;SDS011;49638;47.526;10.028;2023-06-01T13:06:01;13.40;;;8.20;;
63492;SDS011;49638;47.526;10.028;2023-06-01T13:09:01;11.18;;;8.20;;
63492;SDS011;49638;47.526;10.028;2023-06-01T13:12:02;11.43;;;7.75;;
63492;SDS011;49638;47.526;10.028;2023-06-01T13:15:03;15.75;;;8.50;;
63492;SDS011;49638;47.526;10.028;2023-06-01T13:18:04;11.95;;;8.30;;
63492;SDS011;49638;47.526;10.028;2023-06-01T13:21:04;12.60;;;7.65;;
63492;SDS011;49638;47.526;10.028;2023-06-01T13:24:05;12.85;;;8.27;;
63492;SDS011;49638;47.526;10.028;2023-06-01T13:27:05;13.07;;;8.32;;
63492;SDS011;49638;47.526;10.028;2023-06-01T13:30:07;12.10;;;8.30;;
63492;SDS011;49638;47.526;10.028;2023-06-01T13:33:07;11.18;;;8.50;;
63492;SDS011;49638;47.526;10.028;2023-06-01T13:36:08;9.35;;;7.85;;
63492;SDS011;49638;47.526;10.028;2023-06-01T13:39:09;12.27;;;8.20;;
63492;SDS011;49638;47.526;10.028;2023-06-01T13:42:10;16.83;;;9.43;;
63492;SDS011;49638;47.526;10.028;2023-06-01T13:45:11;13.77;;;9.30;;
63492;SDS011;49638;47.526;10.028;2023-06-01T13:48:11;20.60;;;10.48;;
63492;SDS011;49638;47.526;10.028;2023-06-01T13:51:12;17.38;;;9.20;;
63492;SDS011;49638;47.526;10.028;2023-06-01T13:54:12;11.18;;;7.40;;
63492;SDS011;49638;47.526;10.028;2023-06-01T13:57:14;10.45;;;7.50;;
63492;SDS011;49638;47.526;10.028;2023-06-01T14:00:14;11.77;;;6.75;;
63492;SDS011;49638;47.526;10.028;2023-06-01T14:03:15;12.40;;;6.97;;
63492;SDS011;49638;47.526;10.028;2023-06-01T14:06:16;20.63;;;8.75;;
63492;SDS011;49638;47.526;10.028;2023-06-01T14:09:16;18.27;;;10.02;;
63492;SDS011;49638;47.526;10.028;2023-06-01T14:12:17;14.30;;;9.25;;
63492;SDS011;49638;47.526;10.028;2023-06-01T14:15:17;16.30;;;10.35;;
63492;SDS011;49638;47.526;10.028;2023-06-01T14:18:18;21.70;;;12.13;;
63492;SDS011;49638;47.526;10.028;2023-06-01T14:21:18;16.45;;;11.02;;
63492;SDS011;49638;47.526;10.028;2023-06-01T14:24:18;20.23;;;12.93;;
63492;SDS011;49638;47.526;10.028;2023-06-01T14:27:18;17.20;;;11.63;;
63492;SDS011;49638;47.526;10.028;2023-06-01T14:30:20;17.77;;;12.15;;
63492;SDS011;49638;47.526;10.028;2023-06-01T14:33:20;15.27;;;10.45;;
63492;SDS011;49638;47.526;10.028;2023-06-01T14:36:20;15.38;;;10.98;;
63492;SDS011;49638;47.526;10.028;2023-06-01T14:39:21;14.63;;;9.93;;
63492;SDS011;49638;47.526;10.028;2023-06-01T14:42:21;16.27;;;9.50;;
63492;SDS011;49638;47.526;10.028;2023-06-01T14:45:21;15.38;;;10.93;;
63492;SDS011;49638;47.526;10.028;2023-06-01T14:48:23;15.05;;;11.63;;
63492;SDS011;49638;47.526;10.028;2023-06-01T14:51:23;16.58;;;11.95;;
63492;SDS011;49638;47.526;10.028;2023-06-01T14:54:23;11.48;;;8.77;;
63492;SDS011;49638;47.526;10.028;2023-06-01T14:57:24;9.85;;;7.60;;
63492;SDS011;49638;47.526;10.028;2023-06-01T15:00:24;13.65;;;8.27;;
63492;SDS011;49638;47.526;10.028;2023-06-01T15:03:24;8.13;;;6.32;;
63492;SDS011;49638;47.526;10.028;2023-06-01T15:06:25;8.25;;;6.22;;
63492;SDS011;49638;47.526;10.028;2023-06-01T15:09:25;7.45;;;5.40;;
63492;SDS011;49638;47.526;10.028;2023-06-01T15:12:26;7.93;;;6.00;;
63492;SDS011;49638;47.526;10.028;2023-06-01T15:15:26;8.43;;;6.18;;
63492;SDS011;49638;47.526;10.028;2023-06-01T15:18:27;10.48;;;6.35;;
63492;SDS011;49638;47.526;10.028;2023-06-01T15:21:27;7.80;;;5.72;;
63492;SDS011;49638;47.526;10.028;2023-06-01T15:24:27;9.95;;;6.28;;
63492;SDS011;49638;47.526;10.028;2023-06-01T15:27:28;9.00;;;6.03;;
63492;SDS011;49638;47.526;10.028;2023-06-01T15:30:28;10.98;;;6.85;;
63492;SDS011;49638;47.526;10.028;2023-06-01T15:33:31;8.98;;;6.70;;
63492;SDS011;49638;47.526;10.028;2023-06-01T15:36:31;8.43;;;6.20;;
63492;SDS011;49638;47.526;10.028;2023-06-01T15:39:33;8.73;;;6.18;;
63492;SDS011;49638;47.526;10.028;2023-06-01T15:42:33;11.60;;;6.38;;
63492;SDS011;49638;47.526;10.028;2023-06-01T15:45:35;11.38;;;6.18;;
63492;SDS011;49638;47.526;10.028;2023-06-01T15:48:36;9.25;;;6.97;;
63492;SDS011;49638;47.526;10.028;2023-06-01T15:51:39;8.68;;;5.82;;
63492;SDS011;49638;47.526;10.028;2023-06-01T15:54:39;7.70;;;5.60;;
63492;SDS011;49638;47.526;10.028;2023-06-01T15:57:39;6.68;;;5.32;;
63492;SDS011;49638;47.526;10.028;2023-06-01T16:00:40;6.28;;;5.18;;
63492;SDS011;49638;47.526;10.028;2023-06-01T16:03:40;7.80;;;4.80;;
63492;SDS011;49638;47.526;10.028;2023-06-01T16:06:41;7.45;;;5.35;;
63492;SDS011;49638;47.526;10.028;2023-06-01T16:09:41;6.68;;;5.22;;
63492;SDS011;49638;47.526;10.028;2023-06-01T16:12:41;6.82;;;5.28;;
63492;SDS011;49638;47.526;10.028;2023-06-01T16:15:42;7.45;;;5.70;;
63492;SDS011;49638;47.526;10.028;2023-06-01T16:18:43;6.18;;;5.22;;
63492;SDS011;49638;47.526;10.028;2023-06-01T16:21:44;6.45;;;5.07;;
63492;SDS011;49638;47.526;10.028;2023-06-01T16:24:44;7.32;;;5.18;;
63492;SDS011;49638;47.526;10.028;2023-06-01T16:27:44;6.82;;;5.35;;
63492;SDS011;49638;47.526;10.028;2023-06-01T16:30:44;6.60;;;5.17;;
63492;SDS011;49638;47.526;10.028;2023-06-01T16:33:45;6.10;;;4.88;;
63492;SDS011;49638;47.526;10.028;2023-06-01T16:36:45;8.32;;;6.30;;
63492;SDS011;49638;47.526;10.028;2023-06-01T16:39:45;6.53;;;5.22;;
63492;SDS011;49638;47.526;10.028;2023-06-01T16:42:45;4.75;;;4.20;;
63492;SDS011;49638;47.526;10.028;2023-06-01T16:45:46;4.90;;;3.67;;
63492;SDS011;49638;47.526;10.028;2023-06-01T16:48:46;4.15;;;3.75;;
63492;SDS011;49638;47.526;10.028;2023-06-01T16:51:46;4.68;;;3.65;;
63492;SDS011;49638;47.526;10.028;2023-06-01T16:54:46;3.92;;;3.53;;
63492;SDS011;49638;47.526;10.028;2023-06-01T16:57:48;4.28;;;3.83;;
63492;SDS011;49638;47.526;10.028;2023-06-01T17:00:49;5.18;;;3.50;;
63492;SDS011;49638;47.526;10.028;2023-06-01T17:03:49;5.32;;;3.50;;
63492;SDS011;49638;47.526;10.028;2023-06-01T17:06:49;4.45;;;3.63;;
63492;SDS011;49638;47.526;10.028;2023-06-01T17:09:50;5.93;;;3.42;;
63492;SDS011;49638;47.526;10.028;2023-06-01T17:12:50;3.85;;;3.20;;
63492;SDS011;49638;47.526;10.028;2023-06-01T17:15:50;5.13;;;3.40;;
63492;SDS011;49638;47.526;10.028;2023-06-01T17:18:51;4.13;;;3.05;;
63492;SDS011;49638;47.526;10.028;2023-06-01T17:21:51;4.20;;;3.25;;
63492;SDS011;49638;47.526;10.028;2023-06-01T17:24:51;6.72;;;4.38;;
63492;SDS011;49638;47.526;10.028;2023-06-01T17:27:52;5.05;;;4.40;;
63492;SDS011;49638;47.526;10.028;2023-06-01T17:30:52;7.10;;;4.63;;
63492;SDS011;49638;47.526;10.028;2023-06-01T17:33:52;5.53;;;4.93;;
63492;SDS011;49638;47.526;10.028;2023-06-01T17:36:53;7.47;;;5.25;;
63492;SDS011;49638;47.526;10.028;2023-06-01T17:39:53;6.70;;;5.00;;
63492;SDS011;49638;47.526;10.028;2023-06-01T17:42:53;8.13;;;5.93;;
63492;SDS011;49638;47.526;10.028;2023-06-01T17:45:53;9.13;;;6.15;;
63492;SDS011;49638;47.526;10.028;2023-06-01T17:48:54;5.80;;;4.72;;
63492;SDS011;49638;47.526;10.028;2023-06-01T17:51:54;7.72;;;5.75;;
63492;SDS011;49638;47.526;10.028;2023-06-01T17:54:54;5.60;;;5.03;;
63492;SDS011;49638;47.526;10.028;2023-06-01T17:57:54;8.15;;;5.68;;
63492;SDS011;49638;47.526;10.028;2023-06-01T18:00:55;6.10;;;5.43;;
63492;SDS011;49638;47.526;10.028;2023-06-01T18:03:55;6.50;;;4.85;;
63492;SDS011;49638;47.526;10.028;2023-06-01T18:06:56;8.30;;;6.63;;
63492;SDS011;49638;47.526;10.028;2023-06-01T18:09:56;8.27;;;5.18;;
63492;SDS011;49638;47.526;10.028;2023-06-01T18:12:56;9.07;;;6.40;;
63492;SDS011;49638;47.526;10.028;2023-06-01T18:15:56;7.97;;;5.57;;
63492;SDS011;49638;47.526;10.028;2023-06-01T18:18:57;7.95;;;5.55;;
63492;SDS011;49638;47.526;10.028;2023-06-01T18:21:57;6.50;;;4.90;;
63492;SDS011;49638;47.526;10.028;2023-06-01T18:24:59;7.90;;;5.88;;
63492;SDS011;49638;47.526;10.028;2023-06-01T18:28:00;6.45;;;5.05;;